Terminal Aerodrome Forecast
Issued by NWS

Home | Current Version | Previous Version | Graphics & Text | Print | Product List | Glossary Off
Versions: 1 2 3 4 5 6 7 8 9 10 11 12 13 14 15 16 17 18 19 20 21

000
FTUS43 KMPX 222300
TAFAXN
TAF
KAXN 222332Z 2300/2324 01006KT P6SM SCT030
     FM230500 05005KT P6SM BKN022
     FM230900 07005KT 4SM BR BKN015
      TEMPO 2310/2314 BKN007
     FM231400 08007KT 4SM BR VCSH BKN020 OVC090
     FM231800 10011KT 6SM -RA BR SCT020 OVC050=

USA.gov is the U.S. government's official web portal to all federal, state and local government web resources and services.